sensor_id;sensor_type;location;lat;lon;timestamp;P1;durP1;ratioP1;P2;durP2;ratioP2
20695;SDS011;10507;52.754;13.040;2024-01-10T00:01:13;40.23;;;19.43;;
20695;SDS011;10507;52.754;13.040;2024-01-10T00:03:40;39.53;;;19.33;;
20695;SDS011;10507;52.754;13.040;2024-01-10T00:06:08;34.53;;;19.13;;
20695;SDS011;10507;52.754;13.040;2024-01-10T00:08:34;33.20;;;18.40;;
20695;SDS011;10507;52.754;13.040;2024-01-10T00:11:01;37.53;;;18.63;;
20695;SDS011;10507;52.754;13.040;2024-01-10T00:13:28;38.40;;;20.60;;
20695;SDS011;10507;52.754;13.040;2024-01-10T00:15:55;38.37;;;20.43;;
20695;SDS011;10507;52.754;13.040;2024-01-10T00:18:23;43.03;;;19.87;;
20695;SDS011;10507;52.754;13.040;2024-01-10T00:20:50;36.00;;;19.83;;
20695;SDS011;10507;52.754;13.040;2024-01-10T00:23:20;36.40;;;20.00;;
20695;SDS011;10507;52.754;13.040;2024-01-10T00:25:46;41.00;;;20.13;;
20695;SDS011;10507;52.754;13.040;2024-01-10T00:28:13;39.30;;;19.80;;
20695;SDS011;10507;52.754;13.040;2024-01-10T00:30:41;43.00;;;20.87;;
20695;SDS011;10507;52.754;13.040;2024-01-10T00:33:08;39.00;;;18.67;;
20695;SDS011;10507;52.754;13.040;2024-01-10T00:35:35;37.77;;;19.70;;
20695;SDS011;10507;52.754;13.040;2024-01-10T00:38:01;36.13;;;20.10;;
20695;SDS011;10507;52.754;13.040;2024-01-10T00:40:29;43.37;;;20.27;;
20695;SDS011;10507;52.754;13.040;2024-01-10T00:42:56;41.40;;;19.03;;
20695;SDS011;10507;52.754;13.040;2024-01-10T00:45:23;37.00;;;18.43;;
20695;SDS011;10507;52.754;13.040;2024-01-10T00:47:50;41.33;;;19.93;;
20695;SDS011;10507;52.754;13.040;2024-01-10T00:50:17;39.17;;;21.00;;
20695;SDS011;10507;52.754;13.040;2024-01-10T00:52:43;40.30;;;20.33;;
20695;SDS011;10507;52.754;13.040;2024-01-10T00:55:10;43.57;;;20.93;;
20695;SDS011;10507;52.754;13.040;2024-01-10T00:57:38;41.87;;;19.50;;
20695;SDS011;10507;52.754;13.040;2024-01-10T01:00:05;36.77;;;19.67;;
20695;SDS011;10507;52.754;13.040;2024-01-10T01:02:32;40.33;;;19.87;;
20695;SDS011;10507;52.754;13.040;2024-01-10T01:04:59;41.57;;;21.20;;
20695;SDS011;10507;52.754;13.040;2024-01-10T01:07:26;41.77;;;20.50;;
20695;SDS011;10507;52.754;13.040;2024-01-10T01:09:52;35.63;;;20.43;;
20695;SDS011;10507;52.754;13.040;2024-01-10T01:12:19;38.67;;;20.67;;
20695;SDS011;10507;52.754;13.040;2024-01-10T01:14:47;42.67;;;21.10;;
20695;SDS011;10507;52.754;13.040;2024-01-10T01:17:14;44.90;;;20.93;;
20695;SDS011;10507;52.754;13.040;2024-01-10T01:19:40;39.73;;;20.47;;
20695;SDS011;10507;52.754;13.040;2024-01-10T01:22:07;41.20;;;20.00;;
20695;SDS011;10507;52.754;13.040;2024-01-10T01:24:34;40.33;;;21.63;;
20695;SDS011;10507;52.754;13.040;2024-01-10T01:27:01;39.77;;;20.13;;
20695;SDS011;10507;52.754;13.040;2024-01-10T01:29:28;40.40;;;19.33;;
20695;SDS011;10507;52.754;13.040;2024-01-10T01:31:56;47.17;;;21.17;;
20695;SDS011;10507;52.754;13.040;2024-01-10T01:34:23;38.77;;;19.37;;
20695;SDS011;10507;52.754;13.040;2024-01-10T01:36:49;37.80;;;20.60;;
20695;SDS011;10507;52.754;13.040;2024-01-10T01:39:16;38.17;;;19.17;;
20695;SDS011;10507;52.754;13.040;2024-01-10T01:41:43;38.60;;;20.97;;
20695;SDS011;10507;52.754;13.040;2024-01-10T01:44:10;41.23;;;19.80;;
20695;SDS011;10507;52.754;13.040;2024-01-10T01:46:36;43.30;;;20.43;;
20695;SDS011;10507;52.754;13.040;2024-01-10T01:49:06;35.70;;;19.87;;
20695;SDS011;10507;52.754;13.040;2024-01-10T01:51:33;37.30;;;20.07;;
20695;SDS011;10507;52.754;13.040;2024-01-10T01:54:02;42.90;;;18.80;;
20695;SDS011;10507;52.754;13.040;2024-01-10T01:56:32;45.17;;;21.13;;
20695;SDS011;10507;52.754;13.040;2024-01-10T01:58:59;37.93;;;20.53;;
20695;SDS011;10507;52.754;13.040;2024-01-10T02:01:26;38.87;;;19.83;;
20695;SDS011;10507;52.754;13.040;2024-01-10T02:03:53;37.30;;;19.93;;
20695;SDS011;10507;52.754;13.040;2024-01-10T02:06:22;37.60;;;20.00;;
20695;SDS011;10507;52.754;13.040;2024-01-10T02:08:49;39.80;;;20.53;;
20695;SDS011;10507;52.754;13.040;2024-01-10T02:11:17;35.03;;;19.47;;
20695;SDS011;10507;52.754;13.040;2024-01-10T02:13:44;47.57;;;20.07;;
20695;SDS011;10507;52.754;13.040;2024-01-10T02:16:11;41.13;;;19.67;;
20695;SDS011;10507;52.754;13.040;2024-01-10T02:18:37;39.27;;;20.40;;
20695;SDS011;10507;52.754;13.040;2024-01-10T02:21:04;42.10;;;20.10;;
20695;SDS011;10507;52.754;13.040;2024-01-10T02:23:32;37.97;;;20.97;;
20695;SDS011;10507;52.754;13.040;2024-01-10T02:26:00;40.57;;;19.20;;
20695;SDS011;10507;52.754;13.040;2024-01-10T02:28:27;41.23;;;19.73;;
20695;SDS011;10507;52.754;13.040;2024-01-10T02:30:54;39.80;;;20.07;;
20695;SDS011;10507;52.754;13.040;2024-01-10T02:33:21;38.17;;;20.00;;
20695;SDS011;10507;52.754;13.040;2024-01-10T02:35:48;40.10;;;19.90;;
20695;SDS011;10507;52.754;13.040;2024-01-10T02:38:15;36.57;;;19.57;;
20695;SDS011;10507;52.754;13.040;2024-01-10T02:40:42;33.57;;;18.97;;
20695;SDS011;10507;52.754;13.040;2024-01-10T02:43:10;43.93;;;20.07;;
20695;SDS011;10507;52.754;13.040;2024-01-10T02:45:37;40.73;;;20.77;;
20695;SDS011;10507;52.754;13.040;2024-01-10T02:48:04;36.73;;;19.87;;
20695;SDS011;10507;52.754;13.040;2024-01-10T02:50:31;35.63;;;19.33;;
20695;SDS011;10507;52.754;13.040;2024-01-10T02:52:58;34.83;;;19.23;;
20695;SDS011;10507;52.754;13.040;2024-01-10T02:55:24;40.77;;;19.20;;
20695;SDS011;10507;52.754;13.040;2024-01-10T02:57:51;38.83;;;19.30;;
20695;SDS011;10507;52.754;13.040;2024-01-10T03:00:19;39.83;;;21.50;;
20695;SDS011;10507;52.754;13.040;2024-01-10T03:02:45;42.37;;;19.63;;
20695;SDS011;10507;52.754;13.040;2024-01-10T03:05:12;38.70;;;19.83;;
20695;SDS011;10507;52.754;13.040;2024-01-10T03:07:39;39.33;;;21.00;;
20695;SDS011;10507;52.754;13.040;2024-01-10T03:10:06;38.83;;;19.87;;
20695;SDS011;10507;52.754;13.040;2024-01-10T03:12:33;40.60;;;20.27;;
20695;SDS011;10507;52.754;13.040;2024-01-10T03:15:02;43.57;;;21.67;;
20695;SDS011;10507;52.754;13.040;2024-01-10T03:17:31;43.57;;;21.10;;
20695;SDS011;10507;52.754;13.040;2024-01-10T03:19:58;38.20;;;20.47;;
20695;SDS011;10507;52.754;13.040;2024-01-10T03:22:25;40.70;;;20.47;;
20695;SDS011;10507;52.754;13.040;2024-01-10T03:24:52;41.60;;;21.37;;
20695;SDS011;10507;52.754;13.040;2024-01-10T03:27:18;48.37;;;22.43;;
20695;SDS011;10507;52.754;13.040;2024-01-10T03:29:45;43.70;;;20.90;;
20695;SDS011;10507;52.754;13.040;2024-01-10T03:32:11;41.70;;;22.10;;
20695;SDS011;10507;52.754;13.040;2024-01-10T03:34:40;44.77;;;21.83;;
20695;SDS011;10507;52.754;13.040;2024-01-10T03:37:07;44.97;;;23.27;;
20695;SDS011;10507;52.754;13.040;2024-01-10T03:39:34;43.10;;;21.33;;
20695;SDS011;10507;52.754;13.040;2024-01-10T03:42:01;41.83;;;20.13;;
20695;SDS011;10507;52.754;13.040;2024-01-10T03:44:27;43.93;;;22.13;;
20695;SDS011;10507;52.754;13.040;2024-01-10T03:46:54;43.67;;;21.87;;
20695;SDS011;10507;52.754;13.040;2024-01-10T03:49:20;44.33;;;21.27;;
20695;SDS011;10507;52.754;13.040;2024-01-10T03:51:49;41.37;;;21.13;;
20695;SDS011;10507;52.754;13.040;2024-01-10T03:54:15;44.50;;;21.70;;
20695;SDS011;10507;52.754;13.040;2024-01-10T03:56:42;47.53;;;22.60;;
20695;SDS011;10507;52.754;13.040;2024-01-10T03:59:09;45.40;;;22.20;;
20695;SDS011;10507;52.754;13.040;2024-01-10T04:01:36;47.00;;;21.77;;
20695;SDS011;10507;52.754;13.040;2024-01-10T04:04:04;45.30;;;23.53;;
20695;SDS011;10507;52.754;13.040;2024-01-10T04:06:31;41.37;;;20.83;;
20695;SDS011;10507;52.754;13.040;2024-01-10T04:08:59;41.50;;;20.63;;
20695;SDS011;10507;52.754;13.040;2024-01-10T04:11:26;40.33;;;20.57;;
20695;SDS011;10507;52.754;13.040;2024-01-10T04:13:53;42.40;;;21.07;;
20695;SDS011;10507;52.754;13.040;2024-01-10T04:16:19;41.47;;;20.47;;
20695;SDS011;10507;52.754;13.040;2024-01-10T04:18:46;42.47;;;20.77;;
20695;SDS011;10507;52.754;13.040;2024-01-10T04:21:13;43.57;;;20.73;;
20695;SDS011;10507;52.754;13.040;2024-01-10T04:23:39;41.90;;;21.40;;
20695;SDS011;10507;52.754;13.040;2024-01-10T04:26:07;50.50;;;22.40;;
20695;SDS011;10507;52.754;13.040;2024-01-10T04:28:34;42.50;;;21.00;;
20695;SDS011;10507;52.754;13.040;2024-01-10T04:31:04;42.97;;;20.93;;
20695;SDS011;10507;52.754;13.040;2024-01-10T04:33:30;42.80;;;21.20;;
20695;SDS011;10507;52.754;13.040;2024-01-10T04:35:57;39.03;;;19.27;;
20695;SDS011;10507;52.754;13.040;2024-01-10T04:38:24;40.47;;;21.73;;
20695;SDS011;10507;52.754;13.040;2024-01-10T04:40:51;39.93;;;20.10;;
20695;SDS011;10507;52.754;13.040;2024-01-10T04:43:19;42.37;;;21.47;;
20695;SDS011;10507;52.754;13.040;2024-01-10T04:45:46;42.23;;;22.17;;
20695;SDS011;10507;52.754;13.040;2024-01-10T04:48:13;48.70;;;22.47;;
20695;SDS011;10507;52.754;13.040;2024-01-10T04:50:42;51.07;;;23.73;;
20695;SDS011;10507;52.754;13.040;2024-01-10T04:53:09;41.73;;;20.60;;
20695;SDS011;10507;52.754;13.040;2024-01-10T04:55:36;44.67;;;23.30;;
20695;SDS011;10507;52.754;13.040;2024-01-10T04:58:02;46.83;;;21.97;;
20695;SDS011;10507;52.754;13.040;2024-01-10T05:00:30;50.67;;;22.70;;
20695;SDS011;10507;52.754;13.040;2024-01-10T05:02:57;46.57;;;24.20;;
20695;SDS011;10507;52.754;13.040;2024-01-10T05:05:23;46.70;;;22.63;;
20695;SDS011;10507;52.754;13.040;2024-01-10T05:07:50;43.83;;;22.23;;
20695;SDS011;10507;52.754;13.040;2024-01-10T05:10:17;52.07;;;23.90;;
20695;SDS011;10507;52.754;13.040;2024-01-10T05:12:43;44.47;;;22.27;;
20695;SDS011;10507;52.754;13.040;2024-01-10T05:15:10;46.27;;;21.67;;
20695;SDS011;10507;52.754;13.040;2024-01-10T05:17:38;44.23;;;22.97;;
20695;SDS011;10507;52.754;13.040;2024-01-10T05:20:05;47.53;;;23.23;;
20695;SDS011;10507;52.754;13.040;2024-01-10T05:22:34;47.03;;;23.37;;
20695;SDS011;10507;52.754;13.040;2024-01-10T05:25:01;44.87;;;23.13;;
20695;SDS011;10507;52.754;13.040;2024-01-10T05:27:29;47.10;;;24.23;;
20695;SDS011;10507;52.754;13.040;2024-01-10T05:29:56;49.33;;;23.70;;
20695;SDS011;10507;52.754;13.040;2024-01-10T05:32:24;49.13;;;22.87;;
20695;SDS011;10507;52.754;13.040;2024-01-10T05:34:52;51.23;;;25.67;;
20695;SDS011;10507;52.754;13.040;2024-01-10T05:37:19;46.20;;;23.97;;
20695;SDS011;10507;52.754;13.040;2024-01-10T05:39:47;46.77;;;24.10;;
20695;SDS011;10507;52.754;13.040;2024-01-10T05:42:14;52.67;;;24.43;;
20695;SDS011;10507;52.754;13.040;2024-01-10T05:44:41;53.93;;;22.60;;
20695;SDS011;10507;52.754;13.040;2024-01-10T05:47:07;49.50;;;23.33;;
20695;SDS011;10507;52.754;13.040;2024-01-10T05:49:34;45.87;;;24.03;;
20695;SDS011;10507;52.754;13.040;2024-01-10T05:52:02;45.17;;;22.80;;
20695;SDS011;10507;52.754;13.040;2024-01-10T05:54:29;51.57;;;24.70;;
20695;SDS011;10507;52.754;13.040;2024-01-10T05:56:56;47.37;;;23.77;;
20695;SDS011;10507;52.754;13.040;2024-01-10T05:59:23;52.20;;;24.47;;
20695;SDS011;10507;52.754;13.040;2024-01-10T06:01:50;50.40;;;24.67;;
20695;SDS011;10507;52.754;13.040;2024-01-10T06:04:17;48.43;;;23.83;;
20695;SDS011;10507;52.754;13.040;2024-01-10T06:06:43;52.57;;;23.67;;
20695;SDS011;10507;52.754;13.040;2024-01-10T06:09:12;48.47;;;25.77;;
20695;SDS011;10507;52.754;13.040;2024-01-10T06:11:40;53.33;;;26.50;;
20695;SDS011;10507;52.754;13.040;2024-01-10T06:14:07;49.63;;;25.23;;
20695;SDS011;10507;52.754;13.040;2024-01-10T06:16:34;52.03;;;23.80;;
20695;SDS011;10507;52.754;13.040;2024-01-10T06:19:01;53.83;;;25.23;;
20695;SDS011;10507;52.754;13.040;2024-01-10T06:21:28;58.43;;;26.87;;
20695;SDS011;10507;52.754;13.040;2024-01-10T06:23:54;57.73;;;26.23;;
20695;SDS011;10507;52.754;13.040;2024-01-10T06:26:23;50.90;;;26.43;;
20695;SDS011;10507;52.754;13.040;2024-01-10T06:28:49;52.13;;;25.67;;
20695;SDS011;10507;52.754;13.040;2024-01-10T06:31:16;53.57;;;27.07;;
20695;SDS011;10507;52.754;13.040;2024-01-10T06:33:43;55.93;;;27.47;;
20695;SDS011;10507;52.754;13.040;2024-01-10T06:36:09;49.03;;;24.30;;
20695;SDS011;10507;52.754;13.040;2024-01-10T06:38:36;48.60;;;24.47;;
20695;SDS011;10507;52.754;13.040;2024-01-10T06:41:07;56.87;;;25.27;;
20695;SDS011;10507;52.754;13.040;2024-01-10T06:43:36;50.73;;;24.53;;
20695;SDS011;10507;52.754;13.040;2024-01-10T06:46:02;65.07;;;27.00;;
20695;SDS011;10507;52.754;13.040;2024-01-10T06:48:29;52.50;;;24.87;;
20695;SDS011;10507;52.754;13.040;2024-01-10T06:50:56;57.10;;;26.30;;
20695;SDS011;10507;52.754;13.040;2024-01-10T06:53:23;58.13;;;25.83;;
20695;SDS011;10507;52.754;13.040;2024-01-10T06:55:50;59.30;;;25.83;;
20695;SDS011;10507;52.754;13.040;2024-01-10T06:58:16;48.10;;;24.43;;
20695;SDS011;10507;52.754;13.040;2024-01-10T07:00:44;46.83;;;25.43;;
20695;SDS011;10507;52.754;13.040;2024-01-10T07:03:11;49.27;;;24.03;;
20695;SDS011;10507;52.754;13.040;2024-01-10T07:05:38;47.80;;;23.47;;
20695;SDS011;10507;52.754;13.040;2024-01-10T07:08:05;53.57;;;26.30;;
20695;SDS011;10507;52.754;13.040;2024-01-10T07:10:31;59.70;;;24.93;;
20695;SDS011;10507;52.754;13.040;2024-01-10T07:12:59;51.47;;;26.27;;
20695;SDS011;10507;52.754;13.040;2024-01-10T07:15:29;54.73;;;24.40;;
20695;SDS011;10507;52.754;13.040;2024-01-10T07:17:57;55.43;;;24.80;;
20695;SDS011;10507;52.754;13.040;2024-01-10T07:20:23;52.33;;;25.53;;
20695;SDS011;10507;52.754;13.040;2024-01-10T07:22:50;49.70;;;24.37;;
20695;SDS011;10507;52.754;13.040;2024-01-10T07:25:17;54.73;;;24.63;;
20695;SDS011;10507;52.754;13.040;2024-01-10T07:27:46;51.10;;;25.27;;
20695;SDS011;10507;52.754;13.040;2024-01-10T07:30:13;47.73;;;22.67;;
20695;SDS011;10507;52.754;13.040;2024-01-10T07:32:40;56.53;;;23.87;;
20695;SDS011;10507;52.754;13.040;2024-01-10T07:35:09;55.13;;;24.13;;
20695;SDS011;10507;52.754;13.040;2024-01-10T07:37:36;50.10;;;24.50;;
20695;SDS011;10507;52.754;13.040;2024-01-10T07:40:03;51.23;;;24.33;;
20695;SDS011;10507;52.754;13.040;2024-01-10T07:42:33;50.73;;;26.20;;
20695;SDS011;10507;52.754;13.040;2024-01-10T07:45:00;52.87;;;23.70;;
20695;SDS011;10507;52.754;13.040;2024-01-10T07:47:29;53.77;;;24.80;;
20695;SDS011;10507;52.754;13.040;2024-01-10T07:49:56;48.77;;;24.70;;
20695;SDS011;10507;52.754;13.040;2024-01-10T07:52:24;52.80;;;23.67;;
20695;SDS011;10507;52.754;13.040;2024-01-10T07:54:51;53.53;;;24.73;;
20695;SDS011;10507;52.754;13.040;2024-01-10T07:57:18;46.80;;;22.77;;
20695;SDS011;10507;52.754;13.040;2024-01-10T07:59:44;53.30;;;23.67;;
20695;SDS011;10507;52.754;13.040;2024-01-10T08:02:12;50.53;;;23.60;;
20695;SDS011;10507;52.754;13.040;2024-01-10T08:04:39;47.10;;;24.27;;
20695;SDS011;10507;52.754;13.040;2024-01-10T08:07:06;50.57;;;23.60;;
20695;SDS011;10507;52.754;13.040;2024-01-10T08:09:34;49.50;;;23.80;;
20695;SDS011;10507;52.754;13.040;2024-01-10T08:12:01;47.17;;;22.67;;
20695;SDS011;10507;52.754;13.040;2024-01-10T08:14:28;45.10;;;22.13;;
20695;SDS011;10507;52.754;13.040;2024-01-10T08:16:55;56.70;;;25.10;;
20695;SDS011;10507;52.754;13.040;2024-01-10T08:19:23;47.10;;;23.33;;
20695;SDS011;10507;52.754;13.040;2024-01-10T08:21:51;57.67;;;25.47;;
20695;SDS011;10507;52.754;13.040;2024-01-10T08:24:18;50.87;;;25.40;;
20695;SDS011;10507;52.754;13.040;2024-01-10T08:26:46;52.13;;;25.53;;
20695;SDS011;10507;52.754;13.040;2024-01-10T08:29:14;51.67;;;25.67;;
20695;SDS011;10507;52.754;13.040;2024-01-10T08:31:41;56.53;;;24.83;;
20695;SDS011;10507;52.754;13.040;2024-01-10T08:34:07;54.57;;;25.40;;
20695;SDS011;10507;52.754;13.040;2024-01-10T08:36:34;51.13;;;25.97;;
20695;SDS011;10507;52.754;13.040;2024-01-10T08:39:01;54.53;;;25.00;;
20695;SDS011;10507;52.754;13.040;2024-01-10T08:41:28;51.63;;;25.13;;
20695;SDS011;10507;52.754;13.040;2024-01-10T08:43:56;54.53;;;26.10;;
20695;SDS011;10507;52.754;13.040;2024-01-10T08:46:23;52.97;;;26.00;;
20695;SDS011;10507;52.754;13.040;2024-01-10T08:48:50;54.43;;;25.37;;
20695;SDS011;10507;52.754;13.040;2024-01-10T08:51:17;62.03;;;28.50;;
20695;SDS011;10507;52.754;13.040;2024-01-10T08:53:43;54.87;;;26.60;;
20695;SDS011;10507;52.754;13.040;2024-01-10T08:56:10;55.13;;;26.47;;
20695;SDS011;10507;52.754;13.040;2024-01-10T08:58:37;55.57;;;27.53;;
20695;SDS011;10507;52.754;13.040;2024-01-10T09:01:05;53.10;;;26.50;;
20695;SDS011;10507;52.754;13.040;2024-01-10T09:03:33;49.37;;;25.90;;
20695;SDS011;10507;52.754;13.040;2024-01-10T09:05:59;57.97;;;28.00;;
20695;SDS011;10507;52.754;13.040;2024-01-10T09:08:29;59.30;;;28.13;;
20695;SDS011;10507;52.754;13.040;2024-01-10T09:10:56;51.57;;;26.30;;
20695;SDS011;10507;52.754;13.040;2024-01-10T09:13:22;53.87;;;24.70;;
20695;SDS011;10507;52.754;13.040;2024-01-10T09:15:49;57.70;;;25.80;;
20695;SDS011;10507;52.754;13.040;2024-01-10T09:18:17;55.17;;;25.73;;
20695;SDS011;10507;52.754;13.040;2024-01-10T09:20:44;54.13;;;27.13;;
20695;SDS011;10507;52.754;13.040;2024-01-10T09:23:11;58.23;;;25.27;;
20695;SDS011;10507;52.754;13.040;2024-01-10T09:25:39;59.10;;;28.37;;
20695;SDS011;10507;52.754;13.040;2024-01-10T09:28:05;53.37;;;25.53;;
20695;SDS011;10507;52.754;13.040;2024-01-10T09:30:32;55.83;;;27.33;;
20695;SDS011;10507;52.754;13.040;2024-01-10T09:32:59;52.03;;;26.67;;
20695;SDS011;10507;52.754;13.040;2024-01-10T09:35:27;51.53;;;26.27;;
20695;SDS011;10507;52.754;13.040;2024-01-10T09:37:54;56.30;;;26.87;;
20695;SDS011;10507;52.754;13.040;2024-01-10T09:40:20;52.87;;;25.33;;
20695;SDS011;10507;52.754;13.040;2024-01-10T09:42:50;52.30;;;25.47;;
20695;SDS011;10507;52.754;13.040;2024-01-10T09:45:19;51.03;;;25.77;;
20695;SDS011;10507;52.754;13.040;2024-01-10T09:47:48;54.20;;;25.53;;
20695;SDS011;10507;52.754;13.040;2024-01-10T09:50:18;51.97;;;26.87;;
20695;SDS011;10507;52.754;13.040;2024-01-10T09:52:49;49.27;;;26.10;;
20695;SDS011;10507;52.754;13.040;2024-01-10T09:55:17;59.93;;;27.30;;
20695;SDS011;10507;52.754;13.040;2024-01-10T09:57:47;52.17;;;25.57;;
20695;SDS011;10507;52.754;13.040;2024-01-10T10:00:14;52.87;;;26.57;;
20695;SDS011;10507;52.754;13.040;2024-01-10T10:02:42;53.13;;;27.53;;
20695;SDS011;10507;52.754;13.040;2024-01-10T10:05:12;54.20;;;25.47;;
20695;SDS011;10507;52.754;13.040;2024-01-10T10:07:43;53.43;;;23.73;;
20695;SDS011;10507;52.754;13.040;2024-01-10T10:10:12;51.90;;;25.70;;
20695;SDS011;10507;52.754;13.040;2024-01-10T10:12:43;51.13;;;26.50;;
20695;SDS011;10507;52.754;13.040;2024-01-10T10:15:12;53.20;;;26.43;;
20695;SDS011;10507;52.754;13.040;2024-01-10T10:17:40;52.73;;;25.47;;
20695;SDS011;10507;52.754;13.040;2024-01-10T10:20:13;52.03;;;25.43;;
20695;SDS011;10507;52.754;13.040;2024-01-10T10:22:46;49.70;;;25.93;;
20695;SDS011;10507;52.754;13.040;2024-01-10T10:25:27;52.83;;;25.50;;
20695;SDS011;10507;52.754;13.040;2024-01-10T10:27:56;49.80;;;24.70;;
20695;SDS011;10507;52.754;13.040;2024-01-10T10:30:22;54.13;;;25.77;;
20695;SDS011;10507;52.754;13.040;2024-01-10T10:32:49;47.57;;;23.17;;
20695;SDS011;10507;52.754;13.040;2024-01-10T10:35:16;45.77;;;24.40;;
20695;SDS011;10507;52.754;13.040;2024-01-10T10:37:45;48.67;;;23.80;;
20695;SDS011;10507;52.754;13.040;2024-01-10T10:40:11;52.67;;;22.90;;
20695;SDS011;10507;52.754;13.040;2024-01-10T10:42:40;49.37;;;23.17;;
20695;SDS011;10507;52.754;13.040;2024-01-10T10:45:11;52.03;;;22.97;;
20695;SDS011;10507;52.754;13.040;2024-01-10T10:47:41;48.10;;;22.97;;
20695;SDS011;10507;52.754;13.040;2024-01-10T10:50:11;50.47;;;22.30;;
20695;SDS011;10507;52.754;13.040;2024-01-10T10:52:41;51.17;;;23.90;;
20695;SDS011;10507;52.754;13.040;2024-01-10T10:55:13;49.97;;;22.37;;
20695;SDS011;10507;52.754;13.040;2024-01-10T10:57:42;40.20;;;20.83;;
20695;SDS011;10507;52.754;13.040;2024-01-10T11:00:11;45.00;;;22.03;;
20695;SDS011;10507;52.754;13.040;2024-01-10T11:02:40;47.93;;;24.00;;
20695;SDS011;10507;52.754;13.040;2024-01-10T11:05:07;48.17;;;23.80;;
20695;SDS011;10507;52.754;13.040;2024-01-10T11:07:35;41.70;;;22.17;;
20695;SDS011;10507;52.754;13.040;2024-01-10T11:10:02;43.83;;;23.33;;
20695;SDS011;10507;52.754;13.040;2024-01-10T11:12:37;43.83;;;21.43;;
20695;SDS011;10507;52.754;13.040;2024-01-10T11:15:24;45.00;;;22.53;;
20695;SDS011;10507;52.754;13.040;2024-01-10T11:18:12;43.43;;;22.60;;
20695;SDS011;10507;52.754;13.040;2024-01-10T11:20:56;43.13;;;21.33;;
20695;SDS011;10507;52.754;13.040;2024-01-10T11:23:38;44.07;;;20.83;;
20695;SDS011;10507;52.754;13.040;2024-01-10T11:26:09;45.60;;;21.80;;
20695;SDS011;10507;52.754;13.040;2024-01-10T11:28:39;41.77;;;22.00;;
20695;SDS011;10507;52.754;13.040;2024-01-10T11:31:07;43.27;;;19.47;;
20695;SDS011;10507;52.754;13.040;2024-01-10T11:33:34;32.67;;;18.87;;
20695;SDS011;10507;52.754;13.040;2024-01-10T11:36:08;37.90;;;19.67;;
20695;SDS011;10507;52.754;13.040;2024-01-10T11:38:38;42.20;;;17.50;;
20695;SDS011;10507;52.754;13.040;2024-01-10T11:41:07;35.40;;;18.63;;
20695;SDS011;10507;52.754;13.040;2024-01-10T11:43:36;33.60;;;16.80;;
20695;SDS011;10507;52.754;13.040;2024-01-10T11:46:05;36.10;;;17.67;;
20695;SDS011;10507;52.754;13.040;2024-01-10T11:48:32;31.80;;;16.33;;
20695;SDS011;10507;52.754;13.040;2024-01-10T11:50:59;33.83;;;16.63;;
20695;SDS011;10507;52.754;13.040;2024-01-10T11:53:37;32.63;;;16.67;;
20695;SDS011;10507;52.754;13.040;2024-01-10T11:56:08;36.80;;;18.13;;
20695;SDS011;10507;52.754;13.040;2024-01-10T11:58:51;36.87;;;18.73;;
20695;SDS011;10507;52.754;13.040;2024-01-10T12:01:19;34.33;;;17.53;;
20695;SDS011;10507;52.754;13.040;2024-01-10T12:03:47;36.03;;;17.07;;
20695;SDS011;10507;52.754;13.040;2024-01-10T12:06:14;34.73;;;18.03;;
20695;SDS011;10507;52.754;13.040;2024-01-10T12:08:41;35.23;;;17.70;;
20695;SDS011;10507;52.754;13.040;2024-01-10T12:11:08;33.33;;;16.77;;
20695;SDS011;10507;52.754;13.040;2024-01-10T12:13:35;34.17;;;17.13;;
20695;SDS011;10507;52.754;13.040;2024-01-10T12:16:01;37.40;;;16.37;;
20695;SDS011;10507;52.754;13.040;2024-01-10T12:18:29;33.10;;;16.60;;
20695;SDS011;10507;52.754;13.040;2024-01-10T12:20:56;32.33;;;17.20;;
20695;SDS011;10507;52.754;13.040;2024-01-10T12:23:23;31.43;;;18.30;;
20695;SDS011;10507;52.754;13.040;2024-01-10T12:25:52;33.77;;;16.57;;
20695;SDS011;10507;52.754;13.040;2024-01-10T12:28:19;30.17;;;14.80;;
20695;SDS011;10507;52.754;13.040;2024-01-10T12:30:45;28.17;;;14.77;;
20695;SDS011;10507;52.754;13.040;2024-01-10T12:33:13;33.47;;;17.50;;
20695;SDS011;10507;52.754;13.040;2024-01-10T12:35:41;28.70;;;14.00;;
20695;SDS011;10507;52.754;13.040;2024-01-10T12:38:11;29.70;;;14.40;;
20695;SDS011;10507;52.754;13.040;2024-01-10T12:40:37;36.13;;;18.37;;
20695;SDS011;10507;52.754;13.040;2024-01-10T12:43:04;34.40;;;16.43;;
20695;SDS011;10507;52.754;13.040;2024-01-10T12:45:32;30.37;;;15.07;;
20695;SDS011;10507;52.754;13.040;2024-01-10T12:47:59;35.47;;;17.57;;
20695;SDS011;10507;52.754;13.040;2024-01-10T12:50:27;32.37;;;16.53;;
20695;SDS011;10507;52.754;13.040;2024-01-10T12:52:56;34.83;;;16.80;;
20695;SDS011;10507;52.754;13.040;2024-01-10T12:55:25;29.70;;;14.97;;
20695;SDS011;10507;52.754;13.040;2024-01-10T12:57:52;30.40;;;14.73;;
20695;SDS011;10507;52.754;13.040;2024-01-10T13:00:19;33.60;;;16.33;;
20695;SDS011;10507;52.754;13.040;2024-01-10T13:02:46;33.37;;;16.43;;
20695;SDS011;10507;52.754;13.040;2024-01-10T13:05:12;31.80;;;15.27;;
20695;SDS011;10507;52.754;13.040;2024-01-10T13:07:40;31.30;;;14.83;;
20695;SDS011;10507;52.754;13.040;2024-01-10T13:10:08;29.13;;;16.13;;
20695;SDS011;10507;52.754;13.040;2024-01-10T13:12:35;31.23;;;17.17;;
20695;SDS011;10507;52.754;13.040;2024-01-10T13:15:02;30.23;;;16.17;;
20695;SDS011;10507;52.754;13.040;2024-01-10T13:17:29;31.00;;;17.13;;
20695;SDS011;10507;52.754;13.040;2024-01-10T13:19:56;30.27;;;16.57;;
20695;SDS011;10507;52.754;13.040;2024-01-10T13:22:23;34.60;;;16.73;;
20695;SDS011;10507;52.754;13.040;2024-01-10T13:24:49;33.27;;;16.00;;
20695;SDS011;10507;52.754;13.040;2024-01-10T13:27:19;29.53;;;16.90;;
20695;SDS011;10507;52.754;13.040;2024-01-10T13:29:45;34.03;;;16.70;;
20695;SDS011;10507;52.754;13.040;2024-01-10T13:32:12;35.00;;;17.23;;
20695;SDS011;10507;52.754;13.040;2024-01-10T13:34:40;34.07;;;17.93;;
20695;SDS011;10507;52.754;13.040;2024-01-10T13:37:07;29.17;;;14.53;;
20695;SDS011;10507;52.754;13.040;2024-01-10T13:39:37;27.23;;;14.60;;
20695;SDS011;10507;52.754;13.040;2024-01-10T13:42:04;30.50;;;15.27;;
20695;SDS011;10507;52.754;13.040;2024-01-10T13:44:33;28.77;;;15.30;;
20695;SDS011;10507;52.754;13.040;2024-01-10T13:46:59;30.13;;;16.03;;
20695;SDS011;10507;52.754;13.040;2024-01-10T13:49:28;32.93;;;15.50;;
20695;SDS011;10507;52.754;13.040;2024-01-10T13:51:55;28.67;;;14.37;;
20695;SDS011;10507;52.754;13.040;2024-01-10T13:54:21;28.30;;;14.00;;
20695;SDS011;10507;52.754;13.040;2024-01-10T13:56:48;30.77;;;14.70;;
20695;SDS011;10507;52.754;13.040;2024-01-10T13:59:15;26.97;;;13.87;;
20695;SDS011;10507;52.754;13.040;2024-01-10T14:01:43;28.60;;;14.70;;
20695;SDS011;10507;52.754;13.040;2024-01-10T14:04:09;28.33;;;15.40;;
20695;SDS011;10507;52.754;13.040;2024-01-10T14:06:36;27.47;;;14.67;;
20695;SDS011;10507;52.754;13.040;2024-01-10T14:09:02;26.07;;;14.90;;
20695;SDS011;10507;52.754;13.040;2024-01-10T14:11:29;24.97;;;13.73;;